createdAt,value
2017-10-09T00:00:20.456Z,100335
2017-10-09T00:02:48.703Z,100335
2017-10-09T00:05:17.028Z,100324
2017-10-09T00:07:45.291Z,100335
2017-10-09T00:10:13.568Z,100333
2017-10-09T00:12:41.959Z,100332
2017-10-09T00:15:10.277Z,100343
2017-10-09T00:17:38.522Z,100332
2017-10-09T00:20:06.919Z,100334
2017-10-09T00:22:35.175Z,100331
2017-10-09T00:25:04.186Z,100325
2017-10-09T00:27:33.289Z,100325
2017-10-09T00:30:01.531Z,100331
2017-10-09T00:32:29.784Z,100336
2017-10-09T00:34:58.139Z,100323
2017-10-09T00:37:26.395Z,100322
2017-10-09T00:39:55.526Z,100324
2017-10-09T00:42:23.825Z,100324
2017-10-09T00:44:52.129Z,100337
2017-10-09T00:47:20.569Z,100325
2017-10-09T00:49:48.976Z,100333
2017-10-09T00:52:17.294Z,100321
2017-10-09T00:54:45.618Z,100331
2017-10-09T00:57:13.956Z,100324
2017-10-09T00:59:42.182Z,100318
2017-10-09T01:02:11.224Z,100330
2017-10-09T01:04:39.638Z,100330
2017-10-09T01:07:07.899Z,100317
2017-10-09T01:09:36.142Z,100322
2017-10-09T01:12:04.479Z,100333
2017-10-09T01:14:33.532Z,100323
2017-10-09T01:17:01.795Z,100326
2017-10-09T01:19:30.140Z,100330
2017-10-09T01:21:58.498Z,100325
2017-10-09T01:24:26.845Z,100319
2017-10-09T01:26:55.196Z,100320
2017-10-09T01:29:23.447Z,100321
2017-10-09T01:31:51.807Z,100318
2017-10-09T01:34:20.159Z,100318
2017-10-09T01:36:48.445Z,100317
2017-10-09T01:39:16.700Z,100315
2017-10-09T01:41:45.035Z,100310
2017-10-09T01:44:13.344Z,100317
2017-10-09T01:46:41.635Z,100314
2017-10-09T01:49:10.028Z,100318
2017-10-09T01:51:38.417Z,100320
2017-10-09T01:54:06.701Z,100323
2017-10-09T01:56:35.795Z,100330
2017-10-09T01:59:04.841Z,100315
2017-10-09T02:01:33.218Z,100318
2017-10-09T02:04:01.558Z,100314
2017-10-09T02:06:30.574Z,100325
2017-10-09T02:08:58.857Z,100326
2017-10-09T02:11:27.193Z,100331
2017-10-09T02:13:56.268Z,100322
2017-10-09T02:16:24.555Z,100321
2017-10-09T02:18:52.885Z,100322
2017-10-09T02:21:21.169Z,100321
2017-10-09T02:23:49.469Z,100326
2017-10-09T02:26:17.846Z,100317
2017-10-09T02:28:46.116Z,100323
2017-10-09T02:31:14.398Z,100323
2017-10-09T02:33:42.883Z,100319
2017-10-09T02:36:11.197Z,100318
2017-10-09T02:38:39.465Z,100316
2017-10-09T02:41:08.589Z,100325
2017-10-09T02:43:36.864Z,100330
2017-10-09T02:46:05.113Z,100324
2017-10-09T02:48:34.179Z,100317
2017-10-09T02:51:02.417Z,100326
2017-10-09T02:53:30.814Z,100324
2017-10-09T02:55:59.135Z,100324
2017-10-09T02:58:27.414Z,100321
2017-10-09T03:00:55.661Z,100320
2017-10-09T03:03:24.019Z,100320
2017-10-09T03:05:52.285Z,100321
2017-10-09T03:08:20.580Z,100317
2017-10-09T03:10:48.955Z,100324
2017-10-09T03:13:17.197Z,100325
2017-10-09T03:15:45.473Z,100322
2017-10-09T03:18:13.804Z,100320
2017-10-09T03:20:43.252Z,100315
2017-10-09T03:23:12.448Z,100321
2017-10-09T03:39:09.054Z,100319
2017-10-09T03:41:37.897Z,100316
2017-10-09T03:44:06.147Z,100322
2017-10-09T03:46:34.487Z,100311
2017-10-09T03:49:03.533Z,100322
2017-10-09T03:51:31.787Z,100331
2017-10-09T03:54:00.129Z,100330
2017-10-09T03:56:29.233Z,100321
2017-10-09T03:58:57.482Z,100320
2017-10-09T04:01:26.570Z,100324
2017-10-09T04:03:54.831Z,100326
2017-10-09T04:06:23.071Z,100333
2017-10-09T04:08:51.402Z,100334
2017-10-09T04:13:43.605Z,100341
2017-10-09T04:16:11.926Z,100325
2017-10-09T04:18:40.148Z,100332
2017-10-09T04:21:08.413Z,100325
2017-10-09T04:23:37.473Z,100333
2017-10-09T04:26:05.734Z,100320
2017-10-09T04:28:33.986Z,100324
2017-10-09T04:31:02.327Z,100332
2017-10-09T04:33:31.363Z,100324
2017-10-09T04:35:59.677Z,100333
2017-10-09T04:38:27.997Z,100324
2017-10-09T04:40:56.253Z,100323
2017-10-09T04:43:25.268Z,100324
2017-10-09T04:45:53.574Z,100325
2017-10-09T04:48:21.872Z,100325
2017-10-09T04:50:50.291Z,100325
2017-10-09T04:53:19.359Z,100316
2017-10-09T04:55:48.415Z,100325
2017-10-09T04:58:16.670Z,100326
2017-10-09T05:00:44.990Z,100315
2017-10-09T05:03:13.235Z,100331
2017-10-09T05:05:41.499Z,100326
2017-10-09T05:08:09.799Z,100325
2017-10-09T05:10:38.659Z,100331
2017-10-09T05:13:07.085Z,100338
2017-10-09T05:15:35.377Z,100334
2017-10-09T05:18:04.473Z,100335
2017-10-09T05:20:32.734Z,100341
2017-10-09T05:23:01.155Z,100340
2017-10-09T05:25:29.405Z,100338
2017-10-09T05:27:58.395Z,100340
2017-10-09T05:30:27.471Z,100346
2017-10-09T05:32:55.798Z,100348
2017-10-09T05:35:24.056Z,100353
2017-10-09T05:37:52.572Z,100349
2017-10-09T05:40:20.828Z,100352
2017-10-09T05:42:49.161Z,100352
2017-10-09T05:45:17.510Z,100353
2017-10-09T05:47:45.752Z,100348
2017-10-09T05:50:14.009Z,100349
2017-10-09T05:52:43.127Z,100356
2017-10-09T05:55:12.133Z,100354
2017-10-09T05:57:40.467Z,100354
2017-10-09T06:00:09.558Z,100356
2017-10-09T06:02:38.608Z,100352
2017-10-09T06:05:06.882Z,100353
2017-10-09T06:07:35.217Z,100355
2017-10-09T06:10:04.206Z,100344
2017-10-09T06:12:33.240Z,100357
2017-10-09T06:15:01.663Z,100354
2017-10-09T06:17:29.908Z,100353
2017-10-09T06:19:58.159Z,100345
2017-10-09T06:22:26.839Z,100365
2017-10-09T06:24:55.078Z,100358
2017-10-09T06:27:24.128Z,100355
2017-10-09T06:29:52.436Z,100350
2017-10-09T06:32:20.657Z,100352
2017-10-09T06:34:48.897Z,100352
2017-10-09T06:37:19.218Z,100350
2017-10-09T06:39:47.541Z,100349
2017-10-09T06:42:15.884Z,100352
2017-10-09T06:44:44.958Z,100356
2017-10-09T06:47:13.252Z,100351
2017-10-09T06:49:41.581Z,100348
2017-10-09T06:52:09.873Z,100351
2017-10-09T06:54:38.167Z,100355
2017-10-09T06:57:06.489Z,100359
2017-10-09T06:59:34.792Z,100349
2017-10-09T07:02:03.071Z,100355
2017-10-09T07:04:31.380Z,100369
2017-10-09T07:06:59.853Z,100366
2017-10-09T07:09:28.895Z,100356
2017-10-09T07:11:57.254Z,100350
2017-10-09T07:14:25.601Z,100361
2017-10-09T07:16:54.626Z,100354
2017-10-09T07:19:22.904Z,100364
2017-10-09T07:21:51.255Z,100352
2017-10-09T07:24:20.316Z,100360
2017-10-09T07:26:48.684Z,100346
2017-10-09T07:29:17.039Z,100344
2017-10-09T07:31:45.329Z,100350
2017-10-09T07:34:13.569Z,100342
2017-10-09T07:36:41.878Z,100364
2017-10-09T07:39:10.122Z,100354
2017-10-09T07:41:39.126Z,100351
2017-10-09T07:44:07.440Z,100356
2017-10-09T07:46:35.708Z,100356
2017-10-09T07:49:03.955Z,100354
2017-10-09T07:51:32.290Z,100351
2017-10-09T07:54:00.598Z,100356
2017-10-09T07:56:29.675Z,100353
2017-10-09T07:58:58.746Z,100354
2017-10-09T08:01:27.110Z,100363
2017-10-09T08:03:55.429Z,100359
2017-10-09T08:06:24.646Z,100357
2017-10-09T08:08:52.940Z,100359
2017-10-09T08:11:21.274Z,100357
2017-10-09T08:13:50.049Z,100364
2017-10-09T08:16:19.085Z,100349
2017-10-09T08:18:47.441Z,100350
2017-10-09T08:21:16.656Z,100354
2017-10-09T08:23:44.900Z,100350
2017-10-09T08:26:13.984Z,100352
2017-10-09T08:28:43.422Z,100363
2017-10-09T08:31:11.676Z,100350
2017-10-09T08:33:40.005Z,100360
2017-10-09T08:36:08.432Z,100354
2017-10-09T08:38:37.466Z,100358
2017-10-09T08:41:05.885Z,100358
2017-10-09T08:43:34.189Z,100343
2017-10-09T08:46:02.468Z,100350
2017-10-09T08:48:31.615Z,100355
2017-10-09T08:51:00.037Z,100347
2017-10-09T08:53:28.311Z,100354
2017-10-09T08:55:56.601Z,100346
2017-10-09T08:58:25.010Z,100343
2017-10-09T09:00:53.258Z,100348
2017-10-09T09:03:21.580Z,100345
2017-10-09T09:05:49.881Z,100342
2017-10-09T09:08:18.114Z,100342
2017-10-09T09:10:46.394Z,100340
2017-10-09T09:13:14.768Z,100341
2017-10-09T09:15:43.020Z,100343
2017-10-09T09:18:12.388Z,100345
2017-10-09T09:20:40.682Z,100343
2017-10-09T09:23:09.690Z,100333
2017-10-09T09:25:37.948Z,100342
2017-10-09T09:28:07.061Z,100330
2017-10-09T09:30:35.557Z,100335
2017-10-09T09:33:03.866Z,100331
2017-10-09T09:35:32.250Z,100347
2017-10-09T09:38:00.527Z,100335
2017-10-09T09:40:28.906Z,100342
2017-10-09T09:42:57.187Z,100334
2017-10-09T09:45:26.421Z,100338
2017-10-09T09:47:55.594Z,100326
2017-10-09T09:50:23.898Z,100335
2017-10-09T09:52:52.164Z,100344
2017-10-09T09:55:21.186Z,100332
2017-10-09T09:57:50.344Z,100335
2017-10-09T10:00:19.396Z,100339
2017-10-09T10:02:47.742Z,100342
2017-10-09T10:05:16.182Z,100336
2017-10-09T10:07:44.525Z,100343
2017-10-09T10:10:12.802Z,100334
2017-10-09T10:12:41.135Z,100348
2017-10-09T10:15:10.183Z,100351
2017-10-09T10:17:38.427Z,100347
2017-10-09T10:20:06.730Z,100349
2017-10-09T10:22:34.970Z,100348
2017-10-09T10:25:03.232Z,100341
2017-10-09T10:27:32.540Z,100338
2017-10-09T10:30:01.515Z,100343
2017-10-09T10:32:29.967Z,100339
2017-10-09T10:34:58.341Z,100344
2017-10-09T10:37:26.590Z,100343
2017-10-09T10:39:54.887Z,100343
2017-10-09T10:42:23.357Z,100339
2017-10-09T10:44:52.498Z,100320
2017-10-09T10:47:21.544Z,100333
2017-10-09T10:49:50.008Z,100307
2017-10-09T10:52:18.239Z,100319
2017-10-09T10:54:46.508Z,100309
2017-10-09T10:57:14.805Z,100319
2017-10-09T10:59:43.057Z,100312
2017-10-09T11:02:11.320Z,100305
2017-10-09T11:04:39.598Z,100313
2017-10-09T11:07:07.858Z,100299
2017-10-09T11:09:36.112Z,100312
2017-10-09T11:12:04.409Z,100309
2017-10-09T11:14:32.665Z,100312
2017-10-09T11:17:00.905Z,100305
2017-10-09T11:19:30.119Z,100309
2017-10-09T11:21:58.408Z,100316
2017-10-09T11:24:26.681Z,100305
2017-10-09T11:26:55.033Z,100303
2017-10-09T11:29:23.279Z,100299
2017-10-09T11:31:51.501Z,100298
2017-10-09T11:34:19.821Z,100299
2017-10-09T11:36:48.161Z,100302
2017-10-09T11:39:16.455Z,100293
2017-10-09T11:41:44.727Z,100303
2017-10-09T11:44:12.987Z,100298
2017-10-09T11:46:41.229Z,100294
2017-10-09T11:49:10.283Z,100300
2017-10-09T11:51:38.570Z,100299
2017-10-09T11:54:06.849Z,100294
2017-10-09T11:56:35.209Z,100297
2017-10-09T11:59:03.441Z,100302
2017-10-09T12:01:32.458Z,100296
2017-10-09T12:04:01.510Z,100292
2017-10-09T12:06:29.761Z,100297
2017-10-09T12:08:58.055Z,100288
2017-10-09T12:11:27.170Z,100287
2017-10-09T12:13:55.610Z,100291
2017-10-09T12:16:23.850Z,100286
2017-10-09T12:18:52.120Z,100286
2017-10-09T12:21:20.408Z,100284
2017-10-09T12:23:48.657Z,100293
2017-10-09T12:26:17.870Z,100284
2017-10-09T12:28:46.173Z,100277
2017-10-09T12:31:15.226Z,100279
2017-10-09T12:33:44.298Z,100285
2017-10-09T12:36:12.644Z,100286
2017-10-09T12:38:40.996Z,100282
2017-10-09T12:41:09.468Z,100286
2017-10-09T12:43:37.707Z,100279
2017-10-09T12:46:05.986Z,100280
2017-10-09T12:48:34.324Z,100288
2017-10-09T12:51:02.609Z,100278
2017-10-09T12:53:30.884Z,100290
2017-10-09T12:55:59.265Z,100278
2017-10-09T12:58:27.512Z,100278
2017-10-09T13:00:55.750Z,100276
2017-10-09T13:03:24.023Z,100276
2017-10-09T13:05:52.328Z,100283
2017-10-09T13:08:20.571Z,100282
2017-10-09T13:10:48.995Z,100279
2017-10-09T13:13:17.298Z,100289
2017-10-09T13:15:45.721Z,100283
2017-10-09T13:18:14.768Z,100279
2017-10-09T13:20:43.092Z,100282
2017-10-09T13:23:12.099Z,100267
2017-10-09T13:25:40.374Z,100274
2017-10-09T13:28:08.761Z,100274
2017-10-09T13:30:37.009Z,100275
2017-10-09T13:33:06.360Z,100270
2017-10-09T13:35:34.729Z,100275
2017-10-09T13:38:03.890Z,100283
2017-10-09T13:40:32.954Z,100271
2017-10-09T13:43:01.253Z,100286
2017-10-09T13:45:30.270Z,100280
2017-10-09T13:47:59.332Z,100279
2017-10-09T13:50:27.565Z,100273
2017-10-09T13:52:55.892Z,100268
2017-10-09T13:55:25.514Z,100273
2017-10-09T13:57:53.751Z,100267
2017-10-09T14:00:22.003Z,100270
2017-10-09T14:02:51.128Z,100268
2017-10-09T14:05:19.372Z,100266
2017-10-09T14:07:47.621Z,100279
2017-10-09T14:10:15.916Z,100276
2017-10-09T14:12:44.191Z,100273
2017-10-09T14:15:12.448Z,100263
2017-10-09T14:17:40.783Z,100268
2017-10-09T14:20:09.209Z,100275
2017-10-09T14:22:37.595Z,100267
2017-10-09T14:25:06.027Z,100266
2017-10-09T14:27:34.257Z,100263
2017-10-09T14:30:02.546Z,100263
2017-10-09T14:39:56.046Z,100266
2017-10-09T14:42:24.377Z,100270
2017-10-09T14:44:53.393Z,100269
2017-10-09T14:47:21.675Z,100268
2017-10-09T14:49:49.984Z,100277
2017-10-09T14:52:18.261Z,100271
2017-10-09T14:54:46.684Z,100266
2017-10-09T14:57:15.688Z,100274
2017-10-09T14:59:43.963Z,100265
2017-10-09T15:02:13.026Z,100269
2017-10-09T15:04:41.298Z,100268
2017-10-09T15:07:09.588Z,100266
2017-10-09T15:09:38.137Z,100266
2017-10-09T15:12:07.261Z,100275
2017-10-09T15:14:35.611Z,100271
2017-10-09T15:17:04.046Z,100270
2017-10-09T15:19:32.377Z,100273
2017-10-09T15:22:01.451Z,100276
2017-10-09T15:24:29.894Z,100272
2017-10-09T15:26:58.192Z,100281
2017-10-09T15:29:26.473Z,100282
2017-10-09T15:31:54.884Z,100286
2017-10-09T15:34:23.375Z,100282
2017-10-09T15:36:51.647Z,100283
2017-10-09T15:39:20.013Z,100289
2017-10-09T15:41:48.285Z,100297
2017-10-09T15:44:16.531Z,100288
2017-10-09T15:46:44.932Z,100296
2017-10-09T15:49:13.324Z,100295
2017-10-09T15:51:41.567Z,100299
2017-10-09T15:54:09.935Z,100292
2017-10-09T15:56:38.225Z,100296
2017-10-09T15:59:06.536Z,100299
2017-10-09T16:01:34.904Z,100301
2017-10-09T16:04:03.173Z,100304
2017-10-09T16:06:31.412Z,100302
2017-10-09T16:08:59.747Z,100301
2017-10-09T16:11:28.165Z,100307
2017-10-09T16:13:56.553Z,100313
2017-10-09T16:16:24.919Z,100317
2017-10-09T16:18:53.294Z,100307
2017-10-09T16:21:21.595Z,100306
2017-10-09T16:23:49.987Z,100310
2017-10-09T16:26:18.361Z,100308
2017-10-09T16:28:46.643Z,100308
2017-10-09T16:31:15.072Z,100304
2017-10-09T16:33:43.347Z,100313
2017-10-09T16:36:12.417Z,100307
2017-10-09T16:38:41.067Z,100311
2017-10-09T16:41:09.359Z,100307
2017-10-09T16:43:37.810Z,100300
2017-10-09T16:46:06.220Z,100298
2017-10-09T16:48:34.467Z,100300
2017-10-09T16:51:02.762Z,100307
2017-10-09T16:53:31.229Z,100302
2017-10-09T16:55:59.500Z,100297
2017-10-09T16:58:27.746Z,100300
2017-10-09T17:00:56.075Z,100295
2017-10-09T17:03:24.375Z,100295
2017-10-09T17:05:52.638Z,100293
2017-10-09T17:08:20.998Z,100286
2017-10-09T17:10:49.288Z,100296
2017-10-09T17:13:17.562Z,100296
2017-10-09T17:15:45.914Z,100292
2017-10-09T17:18:14.186Z,100291
2017-10-09T17:20:42.479Z,100299
2017-10-09T17:23:10.851Z,100291
2017-10-09T17:25:39.118Z,100296
2017-10-09T17:28:07.376Z,100300
2017-10-09T17:30:35.661Z,100301
2017-10-09T17:33:04.907Z,100301
2017-10-09T17:35:33.184Z,100297
2017-10-09T17:38:01.526Z,100298
2017-10-09T17:40:29.812Z,100294
2017-10-09T17:42:58.058Z,100292
2017-10-09T17:45:26.397Z,100296
2017-10-09T17:47:54.654Z,100291
2017-10-09T17:50:22.966Z,100299
2017-10-09T17:52:52.026Z,100300
2017-10-09T17:55:20.292Z,100306
2017-10-09T17:57:48.595Z,100300
2017-10-09T18:00:17.649Z,100300
2017-10-09T18:02:45.900Z,100310
2017-10-09T18:05:14.252Z,100303
2017-10-09T18:07:43.287Z,100305
2017-10-09T18:10:11.756Z,100299
2017-10-09T18:12:40.025Z,100306
2017-10-09T18:15:08.338Z,100307
2017-10-09T18:17:37.420Z,100305
2017-10-09T18:20:05.692Z,100306
2017-10-09T18:22:34.375Z,100300
2017-10-09T18:25:02.721Z,100304
2017-10-09T18:27:31.052Z,100307
2017-10-09T18:30:00.372Z,100305
2017-10-09T18:32:28.958Z,100308
2017-10-09T18:34:58.108Z,100300
2017-10-09T18:37:26.491Z,100309
2017-10-09T18:39:54.806Z,100316
2017-10-09T18:42:23.117Z,100312
2017-10-09T18:44:51.428Z,100313
2017-10-09T18:47:19.767Z,100307
2017-10-09T18:49:48.052Z,100311
2017-10-09T18:52:17.179Z,100309
2017-10-09T18:54:46.438Z,100301
2017-10-09T18:57:14.762Z,100311
2017-10-09T18:59:43.055Z,100308
2017-10-09T19:02:11.777Z,100300
2017-10-09T19:04:40.040Z,100306
2017-10-09T19:07:09.349Z,100298
2017-10-09T19:09:37.626Z,100305
2017-10-09T19:12:05.974Z,100308
2017-10-09T19:14:35.113Z,100301
2017-10-09T19:17:03.423Z,100305
2017-10-09T19:19:31.729Z,100301
2017-10-09T19:22:00.025Z,100302
2017-10-09T19:24:28.401Z,100301
2017-10-09T19:26:56.659Z,100303
2017-10-09T19:29:25.958Z,100305
2017-10-09T19:31:54.505Z,100305
2017-10-09T19:34:22.862Z,100304
2017-10-09T19:36:52.204Z,100296
2017-10-09T19:39:21.443Z,100299
2017-10-09T19:41:50.365Z,100305
2017-10-09T19:44:18.975Z,100298
2017-10-09T19:46:47.532Z,100298
2017-10-09T19:49:15.944Z,100308
2017-10-09T19:51:45.287Z,100305
2017-10-09T19:54:13.574Z,100307
2017-10-09T19:56:41.902Z,100307
2017-10-09T19:59:10.203Z,100310
2017-10-09T20:01:38.634Z,100308
2017-10-09T20:04:06.934Z,100304
2017-10-09T20:06:35.367Z,100302
2017-10-09T20:09:03.722Z,100308
2017-10-09T20:11:32.063Z,100307
2017-10-09T20:14:00.526Z,100303
2017-10-09T20:16:28.899Z,100308
2017-10-09T20:18:57.166Z,100303
2017-10-09T20:21:25.507Z,100306
2017-10-09T20:23:53.882Z,100313
2017-10-09T20:26:22.701Z,100304
2017-10-09T20:28:51.370Z,100313
2017-10-09T20:31:19.668Z,100314
2017-10-09T20:33:47.990Z,100309
2017-10-09T20:36:17.172Z,100314
2017-10-09T20:38:45.426Z,100312
2017-10-09T20:41:13.783Z,100313
2017-10-09T20:43:42.161Z,100298
2017-10-09T20:46:11.066Z,100314
2017-10-09T20:48:39.550Z,100313
2017-10-09T20:51:08.440Z,100307
2017-10-09T20:53:36.715Z,100301
2017-10-09T20:56:05.075Z,100304
2017-10-09T20:58:33.455Z,100312
2017-10-09T21:01:01.803Z,100303
2017-10-09T21:03:30.796Z,100307
2017-10-09T21:05:59.885Z,100304
2017-10-09T21:08:29.095Z,100309
2017-10-09T21:10:57.389Z,100305
2017-10-09T21:13:26.696Z,100313
2017-10-09T21:15:55.820Z,100309
2017-10-09T21:18:24.139Z,100308
2017-10-09T21:20:52.474Z,100307
2017-10-09T21:23:20.809Z,100315
2017-10-09T21:25:49.174Z,100306
2017-10-09T21:28:17.592Z,100312
2017-10-09T21:30:45.884Z,100308
2017-10-09T21:33:14.138Z,100306
2017-10-09T21:35:42.443Z,100305
2017-10-09T21:38:10.802Z,100304
2017-10-09T21:40:39.106Z,100299
2017-10-09T21:43:07.440Z,100304
2017-10-09T21:45:35.790Z,100302
2017-10-09T21:48:04.041Z,100301
2017-10-09T21:50:32.394Z,100298
2017-10-09T21:53:00.665Z,100293
2017-10-09T21:55:29.266Z,100296
2017-10-09T21:57:57.545Z,100289
2017-10-09T22:00:25.899Z,100283
2017-10-09T22:02:55.083Z,100293
2017-10-09T22:05:23.442Z,100300
2017-10-09T22:07:51.770Z,100296
2017-10-09T22:10:20.809Z,100288
2017-10-09T22:12:50.076Z,100281
2017-10-09T22:15:19.238Z,100288
2017-10-09T22:17:47.514Z,100284
2017-10-09T22:20:15.871Z,100288
2017-10-09T22:22:44.263Z,100296
2017-10-09T22:25:12.545Z,100298
2017-10-09T22:27:40.903Z,100298
2017-10-09T22:30:09.402Z,100309
2017-10-09T22:32:37.699Z,100297
2017-10-09T22:35:06.078Z,100298
2017-10-09T22:37:34.402Z,100291
2017-10-09T22:40:02.702Z,100288
2017-10-09T22:42:31.120Z,100292
2017-10-09T22:45:00.163Z,100296
2017-10-09T22:47:28.442Z,100298
2017-10-09T22:49:56.756Z,100285
2017-10-09T22:52:25.032Z,100284
2017-10-09T22:54:53.328Z,100280
2017-10-09T22:57:21.720Z,100275
2017-10-09T22:59:50.722Z,100276
2017-10-09T23:02:18.964Z,100270
2017-10-09T23:04:47.275Z,100273
2017-10-09T23:07:15.606Z,100272
2017-10-09T23:09:43.854Z,100278
2017-10-09T23:12:12.120Z,100276
2017-10-09T23:14:40.374Z,100272
2017-10-09T23:17:08.703Z,100274
2017-10-09T23:19:37.780Z,100279
2017-10-09T23:22:06.100Z,100279
2017-10-09T23:24:35.144Z,100276
2017-10-09T23:27:03.570Z,100274
2017-10-09T23:29:32.671Z,100278
2017-10-09T23:32:01.691Z,100284
2017-10-09T23:34:29.969Z,100273
2017-10-09T23:36:58.270Z,100277
2017-10-09T23:39:26.511Z,100272
2017-10-09T23:41:54.956Z,100270
2017-10-09T23:44:23.314Z,100263
2017-10-09T23:46:51.664Z,100268
2017-10-09T23:49:20.696Z,100265
2017-10-09T23:51:49.032Z,100262
2017-10-09T23:54:17.293Z,100262
2017-10-09T23:56:46.435Z,100269
2017-10-09T23:59:14.699Z,100261
